Time;durP1;ratioP1;P1;durP2;ratioP2;P2;SDS_P1;SDS_P2;PMS_P1;PMS_P2;Temp;Humidity;BMP_temperature;BMP_pressure;BME280_temperature;BME280_humidity;BME280_pressure;Samples;Min_cycle;Max_cycle;Signal;HPM_P1;HPM_P2
2021/04/11 00:00:37;;;;;;;16.67;11.43;;;4.40;99.90;;;;;;5034654;28;20044;-84
2021/04/11 00:03:06;;;;;;;14.98;10.80;;;4.40;99.90;;;;;;5034480;28;20076;-83
2021/04/11 00:05:35;;;;;;;15.18;12.05;;;4.40;99.90;;;;;;5035623;28;20022;-83
2021/04/11 00:08:03;;;;;;;13.47;10.87;;;4.30;99.90;;;;;;5034458;28;20026;-83
2021/04/11 00:10:33;;;;;;;13.95;10.63;;;4.30;99.90;;;;;;5034471;28;20032;-83
2021/04/11 00:13:00;;;;;;;14.52;9.95;;;4.30;99.90;;;;;;5035723;28;20022;-83
2021/04/11 00:15:26;;;;;;;14.55;10.68;;;4.20;99.90;;;;;;5034215;28;20026;-83
2021/04/11 00:17:51;;;;;;;15.30;12.02;;;4.20;99.90;;;;;;5035443;28;20030;-84
2021/04/11 00:20:17;;;;;;;13.77;11.32;;;4.20;99.90;;;;;;5034337;28;20025;-84
2021/04/11 00:22:44;;;;;;;14.15;11.15;;;4.10;99.90;;;;;;5034324;28;20024;-84
2021/04/11 00:25:16;;;;;;;14.38;11.30;;;4.10;99.90;;;;;;5034095;28;20036;-84
2021/04/11 00:27:41;;;;;;;18.13;11.90;;;4.10;99.90;;;;;;5034313;28;20025;-84
2021/04/11 00:30:08;;;;;;;15.02;11.18;;;4.10;99.90;;;;;;5035322;28;20354;-84
2021/04/11 00:32:33;;;;;;;14.68;11.32;;;4.00;99.90;;;;;;5035320;28;20473;-84
2021/04/11 00:34:59;;;;;;;16.05;11.85;;;4.00;99.90;;;;;;5035370;28;20041;-85
2021/04/11 00:37:24;;;;;;;14.75;10.63;;;4.00;99.90;;;;;;5034010;28;20025;-84
2021/04/11 00:39:50;;;;;;;15.35;10.82;;;4.00;99.90;;;;;;5033911;28;20021;-84
2021/04/11 00:42:34;;;;;;;13.73;10.85;;;4.00;99.90;;;;;;5033868;28;20049;-85
2021/04/11 00:45:25;;;;;;;14.07;11.23;;;4.00;99.90;;;;;;5033980;28;20044;-84
2021/04/11 00:47:53;;;;;;;14.48;11.07;;;4.00;99.90;;;;;;5033686;28;20022;-84
2021/04/11 00:50:19;;;;;;;16.20;11.65;;;4.00;99.90;;;;;;5034044;28;20028;-85
2021/04/11 00:52:45;;;;;;;15.15;11.43;;;4.00;99.90;;;;;;5033758;28;20057;-84
2021/04/11 00:55:13;;;;;;;14.70;11.55;;;4.00;99.90;;;;;;5033596;28;20121;-84
2021/04/11 00:57:42;;;;;;;13.75;11.45;;;4.00;99.90;;;;;;5034870;28;20033;-85
2021/04/11 01:00:08;;;;;;;15.27;11.55;;;4.00;99.90;;;;;;5033584;28;20036;-85
2021/04/11 01:02:36;;;;;;;16.85;12.70;;;4.00;99.90;;;;;;5034842;28;20072;-84
2021/04/11 01:05:01;;;;;;;17.38;13.05;;;4.00;99.90;;;;;;5034442;28;20029;-84
2021/04/11 01:07:28;;;;;;;15.93;12.23;;;3.90;99.90;;;;;;5034631;28;20025;-85
2021/04/11 01:09:54;;;;;;;16.83;12.80;;;3.90;99.90;;;;;;5033391;28;20017;-84
2021/04/11 01:12:23;;;;;;;17.73;13.15;;;4.00;99.90;;;;;;5034645;28;20026;-84
2021/04/11 01:14:49;;;;;;;21.52;13.70;;;3.90;99.90;;;;;;5033261;28;20033;-85
2021/04/11 01:17:17;;;;;;;15.27;12.25;;;3.90;99.90;;;;;;5033194;28;20026;-85
2021/04/11 01:19:44;;;;;;;14.38;11.50;;;3.90;99.90;;;;;;5033028;28;20492;-84
2021/04/11 01:22:37;;;;;;;17.40;13.13;;;3.90;99.90;;;;;;5034412;28;20041;-84
2021/04/11 01:25:09;;;;;;;18.40;13.88;;;3.90;99.90;;;;;;5033243;28;20370;-84
2021/04/11 01:27:36;;;;;;;15.18;12.35;;;3.90;99.90;;;;;;5034330;28;20112;-84
2021/04/11 01:30:21;;;;;;;20.00;14.63;;;3.90;99.90;;;;;;5034270;28;20017;-84
2021/04/11 01:32:49;;;;;;;16.38;13.05;;;3.90;99.90;;;;;;5049585;28;20051;-84
2021/04/11 01:35:17;;;;;;;16.02;12.15;;;3.80;99.90;;;;;;5032604;28;20389;-84
2021/04/11 01:37:43;;;;;;;16.45;11.32;;;3.80;99.90;;;;;;5034039;28;20406;-84
2021/04/11 01:40:13;;;;;;;15.48;11.40;;;3.90;99.90;;;;;;5032806;28;20497;-84
2021/04/11 01:42:39;;;;;;;17.45;13.65;;;3.90;99.90;;;;;;5032760;28;20049;-84
2021/04/11 01:45:05;;;;;;;18.13;13.88;;;3.80;99.90;;;;;;5032648;28;20033;-84
2021/04/11 01:47:31;;;;;;;17.50;12.45;;;3.80;99.90;;;;;;5033782;28;20021;-84
2021/04/11 01:49:57;;;;;;;16.48;13.20;;;3.80;99.90;;;;;;5032479;28;20112;-84
2021/04/11 01:52:31;;;;;;;14.82;11.80;;;3.70;99.90;;;;;;5032640;28;20146;-84
2021/04/11 01:54:57;;;;;;;14.93;11.57;;;3.70;99.90;;;;;;5032679;28;20029;-84
2021/04/11 01:57:30;;;;;;;14.35;11.57;;;3.80;99.90;;;;;;5032439;28;20116;-84
2021/04/11 02:00:24;;;;;;;17.02;12.57;;;3.80;99.90;;;;;;5032267;28;20030;-84
2021/04/11 02:02:54;;;;;;;15.35;11.90;;;3.80;99.90;;;;;;5032452;28;20437;-84
2021/04/11 02:05:21;;;;;;;14.90;11.52;;;3.80;99.90;;;;;;5033546;28;20030;-84
2021/04/11 02:07:48;;;;;;;15.75;11.63;;;3.70;99.90;;;;;;5033528;28;20114;-83
2021/04/11 02:10:17;;;;;;;16.33;11.48;;;3.70;99.90;;;;;;5032303;28;20022;-83
2021/04/11 02:12:45;;;;;;;14.52;10.73;;;3.70;99.90;;;;;;5032210;28;20106;-83
2021/04/11 02:15:18;;;;;;;13.82;10.77;;;3.70;99.90;;;;;;5032051;28;20038;-83
2021/04/11 02:17:44;;;;;;;18.20;12.82;;;3.70;99.90;;;;;;5032109;28;20021;-83
2021/04/11 02:20:11;;;;;;;16.70;12.30;;;3.70;99.90;;;;;;5033214;28;20104;-83
2021/04/11 02:22:39;;;;;;;16.25;12.40;;;3.70;99.90;;;;;;5032040;28;20026;-83
2021/04/11 02:25:07;;;;;;;16.45;12.10;;;3.70;99.90;;;;;;5033182;28;20017;-83
2021/04/11 02:27:32;;;;;;;18.45;11.85;;;3.70;99.90;;;;;;5031991;28;20025;-83
2021/04/11 02:30:04;;;;;;;20.08;14.10;;;3.70;99.90;;;;;;5031857;28;20032;-83
2021/04/11 02:32:30;;;;;;;18.00;13.35;;;3.70;99.90;;;;;;5031920;28;20079;-83
2021/04/11 02:35:00;;;;;;;17.73;12.95;;;3.70;99.90;;;;;;5033030;28;20029;-83
2021/04/11 02:37:30;;;;;;;16.48;13.15;;;3.70;99.90;;;;;;5031899;28;20065;-83
2021/04/11 02:39:57;;;;;;;18.05;12.98;;;3.70;99.90;;;;;;5033211;28;20033;-83
2021/04/11 02:42:30;;;;;;;15.65;11.90;;;3.70;99.90;;;;;;5031601;28;20053;-83
2021/04/11 02:45:05;;;;;;;15.30;12.10;;;3.70;99.90;;;;;;5033027;28;20411;-83
2021/04/11 02:47:30;;;;;;;15.77;11.90;;;3.80;99.90;;;;;;5031623;28;20064;-83
2021/04/11 02:49:56;;;;;;;16.52;11.55;;;3.70;99.90;;;;;;5031791;28;20037;-83
2021/04/11 02:52:30;;;;;;;13.98;10.45;;;3.80;99.90;;;;;;5032812;28;20048;-83
2021/04/11 02:54:58;;;;;;;12.93;9.80;;;3.80;99.90;;;;;;5031634;28;20366;-83
2021/04/11 02:57:24;;;;;;;12.35;9.40;;;3.80;99.90;;;;;;5032804;28;20029;-83
2021/04/11 02:59:51;;;;;;;14.85;9.65;;;3.80;99.90;;;;;;5033018;28;20132;-83
2021/04/11 03:02:17;;;;;;;11.75;8.95;;;3.80;99.90;;;;;;5031716;28;20039;-83
2021/04/11 03:04:43;;;;;;;10.85;8.10;;;3.80;99.90;;;;;;5032811;28;20033;-83
2021/04/11 03:07:15;;;;;;;9.27;7.40;;;3.80;99.90;;;;;;5032620;28;20477;-83
2021/04/11 03:09:48;;;;;;;10.10;7.60;;;3.90;99.90;;;;;;5031624;28;20022;-83
2021/04/11 03:12:17;;;;;;;10.07;6.88;;;3.90;99.90;;;;;;5032345;28;20079;-83
2021/04/11 03:14:43;;;;;;;7.35;5.93;;;3.90;99.90;;;;;;5036847;28;20528;-83
2021/04/11 03:17:12;;;;;;;8.00;6.32;;;3.90;99.90;;;;;;5035435;28;20346;-83
2021/04/11 03:19:47;;;;;;;6.60;5.63;;;3.90;99.90;;;;;;5036789;28;20018;-82
2021/04/11 03:22:16;;;;;;;8.20;5.68;;;3.90;99.90;;;;;;5035466;28;20033;-83
2021/04/11 03:24:41;;;;;;;6.28;5.00;;;3.90;99.90;;;;;;5035390;28;20040;-83
2021/04/11 03:27:24;;;;;;;6.80;4.95;;;3.90;99.90;;;;;;5035563;28;20029;-82
2021/04/11 03:29:54;;;;;;;5.70;4.40;;;3.90;99.90;;;;;;5036606;28;20036;-83
2021/04/11 03:32:25;;;;;;;5.40;4.28;;;3.90;99.90;;;;;;5035319;28;20052;-83
2021/04/11 03:34:53;;;;;;;5.68;4.10;;;3.90;99.90;;;;;;5036670;28;20026;-82
2021/04/11 03:37:22;;;;;;;4.10;3.47;;;3.90;99.90;;;;;;5034984;28;20051;-83
2021/04/11 03:39:48;;;;;;;5.03;3.67;;;3.90;99.90;;;;;;5036463;28;20026;-83
2021/04/11 03:42:20;;;;;;;4.65;4.03;;;3.90;99.90;;;;;;5034789;28;20049;-83
2021/04/11 03:44:46;;;;;;;5.53;3.38;;;3.90;99.90;;;;;;5034824;28;20410;-82
2021/04/11 03:47:29;;;;;;;4.80;3.50;;;4.00;99.90;;;;;;5034878;28;20061;-83
2021/04/11 03:50:12;;;;;;;4.50;3.28;;;4.00;99.90;;;;;;5036245;28;20017;-83
2021/04/11 03:52:43;;;;;;;4.35;3.70;;;4.00;99.90;;;;;;5034785;28;20025;-83
2021/04/11 03:55:19;;;;;;;4.57;3.60;;;3.90;99.90;;;;;;5036019;28;20053;-83
2021/04/11 03:57:50;;;;;;;5.35;4.03;;;3.90;99.90;;;;;;5034676;28;20037;-83
2021/04/11 04:00:36;;;;;;;5.00;3.92;;;3.90;99.90;;;;;;5034642;28;20103;-83
2021/04/11 04:03:10;;;;;;;5.03;3.08;;;3.90;99.90;;;;;;5035514;28;20021;-83
2021/04/11 04:05:38;;;;;;;4.20;3.05;;;3.90;99.90;;;;;;5035010;28;20021;-83
2021/04/11 04:08:04;;;;;;;4.13;3.40;;;3.90;99.90;;;;;;5034066;28;20061;-83
2021/04/11 04:10:38;;;;;;;3.70;3.22;;;3.90;99.90;;;;;;5034411;28;20495;-83
2021/04/11 04:13:29;;;;;;;5.07;3.92;;;4.00;99.90;;;;;;5034560;28;20021;-83
2021/04/11 04:16:14;;;;;;;5.15;3.38;;;4.00;99.90;;;;;;5026093;28;20033;-83
2021/04/11 04:19:00;;;;;;;4.38;3.90;;;3.90;99.90;;;;;;5015920;28;20060;-83
2021/04/11 04:22:01;;;;;;;4.93;3.80;;;3.90;99.90;;;;;;5014591;28;20026;-82
2021/04/11 04:24:47;;;;;;;7.00;4.50;;;4.00;99.90;;;;;;5015801;28;20489;-83
2021/04/11 04:27:21;;;;;;;6.55;4.18;;;4.00;99.90;;;;;;5015690;28;20100;-82
2021/04/11 04:30:21;;;;;;;5.15;4.18;;;4.00;99.90;;;;;;5014355;28;20112;-83
2021/04/11 04:32:57;;;;;;;6.95;4.25;;;4.00;99.90;;;;;;5014318;28;20088;-83
2021/04/11 04:35:29;;;;;;;5.90;4.50;;;4.00;99.90;;;;;;5015270;28;20030;-83
2021/04/11 04:38:13;;;;;;;5.20;4.25;;;4.00;99.90;;;;;;5013693;28;20443;-82
2021/04/11 04:41:03;;;;;;;5.63;5.03;;;4.00;99.90;;;;;;5014057;28;20026;-82
2021/04/11 04:43:50;;;;;;;6.22;4.22;;;4.10;99.90;;;;;;5025440;28;20079;-83
2021/04/11 04:46:34;;;;;;;5.35;4.38;;;4.00;99.90;;;;;;5033936;28;20025;-83
2021/04/11 04:49:22;;;;;;;5.95;4.68;;;4.10;99.90;;;;;;5033289;28;20033;-83
2021/04/11 04:52:00;;;;;;;5.50;4.30;;;4.10;99.90;;;;;;5033486;28;20033;-83
2021/04/11 04:54:48;;;;;;;7.97;5.30;;;4.10;99.90;;;;;;5033498;28;20131;-83
2021/04/11 04:57:19;;;;;;;9.18;5.40;;;4.10;99.90;;;;;;5033639;28;20119;-82
2021/04/11 05:00:10;;;;;;;7.30;5.30;;;4.10;99.90;;;;;;5033508;28;20072;-83
2021/04/11 05:02:55;;;;;;;7.40;5.15;;;4.10;99.90;;;;;;5033625;28;20022;-82
2021/04/11 05:05:23;;;;;;;5.85;4.65;;;4.20;99.90;;;;;;5034775;28;20390;-83
2021/04/11 05:08:12;;;;;;;7.38;4.68;;;4.20;99.90;;;;;;5033325;28;20491;-82
2021/04/11 05:10:41;;;;;;;7.20;5.03;;;4.20;99.90;;;;;;5033485;28;20473;-83
2021/04/11 05:13:16;;;;;;;5.95;4.63;;;4.20;99.90;;;;;;5034305;28;20078;-83
2021/04/11 05:15:44;;;;;;;5.63;4.85;;;4.20;99.90;;;;;;5034522;28;20032;-83
2021/04/11 05:18:20;;;;;;;7.07;5.07;;;4.20;99.90;;;;;;5033158;28;20188;-83
2021/04/11 05:20:55;;;;;;;5.90;5.03;;;4.20;99.90;;;;;;5019076;28;20029;-82
2021/04/11 05:23:30;;;;;;;6.15;4.95;;;4.20;99.90;;;;;;5012966;28;20429;-82
2021/04/11 05:26:14;;;;;;;7.05;4.88;;;4.20;99.90;;;;;;5014191;28;20030;-84
2021/04/11 05:28:48;;;;;;;5.03;4.45;;;4.20;99.90;;;;;;5014487;28;20478;-83
2021/04/11 05:31:20;;;;;;;5.00;4.25;;;4.20;99.90;;;;;;5013167;28;20052;-86
2021/04/11 05:33:49;;;;;;;6.88;4.18;;;4.20;99.90;;;;;;5015582;28;20183;-84
2021/04/11 05:36:51;;;;;;;5.88;4.50;;;4.20;99.90;;;;;;5023467;28;20474;-84
2021/04/11 05:39:26;;;;;;;4.78;4.13;;;4.20;99.90;;;;;;5030999;28;20017;-85
2021/04/11 05:42:19;;;;;;;5.28;4.65;;;4.20;99.90;;;;;;5032564;28;20048;-85
2021/04/11 05:45:38;;;;;;;6.72;4.28;;;4.20;99.90;;;;;;5049397;28;20384;-85
2021/04/11 05:48:17;;;;;;;5.57;4.40;;;4.20;99.90;;;;;;4975512;28;20026;-84
2021/04/11 05:51:04;;;;;;;7.07;4.63;;;4.30;99.90;;;;;;4981278;28;20106;-81
2021/04/11 05:53:38;;;;;;;5.10;4.60;;;4.20;99.90;;;;;;5019315;28;20037;-81
2021/04/11 05:56:09;;;;;;;5.82;4.30;;;4.20;99.90;;;;;;5033651;28;20037;-81
2021/04/11 05:58:46;;;;;;;5.57;4.88;;;4.30;99.90;;;;;;5033828;28;20042;-82
2021/04/11 06:01:17;;;;;;;5.97;4.20;;;4.30;99.90;;;;;;5032500;28;20025;-81
2021/04/11 06:03:50;;;;;;;5.03;4.50;;;4.30;99.90;;;;;;5033666;28;20037;-84
2021/04/11 06:06:26;;;;;;;4.68;3.95;;;4.30;99.90;;;;;;5032452;28;20051;-84
2021/04/11 06:09:16;;;;;;;6.20;4.25;;;4.40;99.90;;;;;;5032271;28;20120;-84
2021/04/11 06:11:53;;;;;;;6.93;4.15;;;4.40;99.90;;;;;;5033427;28;20485;-84
2021/04/11 06:14:32;;;;;;;4.22;3.58;;;4.40;99.90;;;;;;5031512;28;20080;-84
2021/04/11 06:16:58;;;;;;;4.38;3.95;;;4.40;99.90;;;;;;5030122;28;20021;-84
2021/04/11 06:19:25;;;;;;;4.30;3.25;;;4.40;99.90;;;;;;5023582;28;20366;-84
2021/04/11 06:22:18;;;;;;;4.85;4.00;;;4.40;99.90;;;;;;5032933;28;20053;-84
2021/04/11 06:25:04;;;;;;;4.43;3.80;;;4.40;99.90;;;;;;5027762;28;20022;-87
2021/04/11 06:27:33;;;;;;;4.63;3.95;;;4.40;99.90;;;;;;5030245;28;20057;-86
2021/04/11 06:30:19;;;;;;;3.95;3.58;;;4.40;99.90;;;;;;5039615;28;20547;-85
2021/04/11 06:32:56;;;;;;;6.70;3.42;;;4.40;99.90;;;;;;5030979;28;20025;-85
2021/04/11 06:35:54;;;;;;;5.55;3.30;;;4.40;99.90;;;;;;5030381;28;20029;-83
2021/04/11 06:38:24;;;;;;;3.42;3.13;;;4.50;99.90;;;;;;5030025;28;20502;-84
2021/04/11 06:41:19;;;;;;;5.03;3.20;;;4.50;99.90;;;;;;5030944;28;20104;-84
2021/04/11 06:44:17;;;;;;;4.00;2.88;;;4.50;99.90;;;;;;5023821;28;20426;-84
2021/04/11 06:47:09;;;;;;;3.90;3.10;;;4.60;99.90;;;;;;5029918;28;20393;-83
2021/04/11 06:49:53;;;;;;;5.10;2.97;;;4.60;99.90;;;;;;5043490;28;20064;-84
2021/04/11 06:52:53;;;;;;;4.40;3.05;;;4.60;99.90;;;;;;5020160;28;20467;-83
2021/04/11 06:55:19;;;;;;;;;;;4.60;99.90;;;;;;5033739;28;20038;-83
2021/04/11 06:58:29;;;;;;;5.38;2.65;;;4.60;99.90;;;;;;5033571;28;20470;-83
2021/04/11 07:01:35;;;;;;;3.35;2.13;;;4.70;99.90;;;;;;5010634;28;20037;-83
2021/04/11 07:04:25;;;;;;;4.88;2.13;;;4.70;99.90;;;;;;5018379;28;20049;-81
2021/04/11 07:07:10;;;;;;;;;;;4.80;99.90;;;;;;5032015;28;20211;-83
2021/04/11 07:10:02;;;;;;;2.63;2.15;;;4.70;99.90;;;;;;5028416;28;19905;-83
2021/04/11 07:13:16;;;;;;;4.25;2.38;;;4.80;99.90;;;;;;5032174;28;20017;-83
2021/04/11 07:16:14;;;;;;;4.07;2.80;;;4.90;99.90;;;;;;5005431;28;20034;-83
2021/04/11 07:19:17;;;;;;;4.50;2.60;;;4.90;99.90;;;;;;5011684;28;20018;-83
2021/04/11 07:22:14;;;;;;;5.38;3.03;;;4.90;99.90;;;;;;5011559;28;20071;-83
2021/04/11 07:24:42;;;;;;;3.65;2.35;;;5.00;99.90;;;;;;5017362;28;20029;-83
2021/04/11 07:27:35;;;;;;;4.43;2.80;;;5.00;99.90;;;;;;5031164;28;20021;-83
2021/04/11 07:30:28;;;;;;;5.82;3.25;;;5.00;99.90;;;;;;5031275;28;20065;-83
2021/04/11 07:33:13;;;;;;;4.40;3.20;;;5.00;99.90;;;;;;5032109;28;20091;-83
2021/04/11 07:35:51;;;;;;;5.10;2.78;;;5.00;99.90;;;;;;5027777;28;20032;-83
2021/04/11 07:38:39;;;;;;;3.50;2.90;;;4.90;99.90;;;;;;5031103;28;20076;-83
2021/04/11 07:41:04;;;;;;;4.32;2.33;;;4.90;99.90;;;;;;5030536;28;20032;-83
2021/04/11 07:43:42;;;;;;;3.88;2.97;;;4.90;99.90;;;;;;5031530;28;20053;-83
2021/04/11 07:46:28;;;;;;;4.10;3.08;;;4.90;99.90;;;;;;5032391;28;20030;-83
2021/04/11 07:49:40;;;;;;;3.72;2.70;;;4.90;99.90;;;;;;5030442;28;20033;-82
2021/04/11 07:52:27;;;;;;;4.63;2.90;;;4.90;99.90;;;;;;5027727;28;20481;-83
2021/04/11 07:55:07;;;;;;;4.20;3.08;;;4.90;99.90;;;;;;5030906;28;20021;-83
2021/04/11 07:57:51;;;;;;;4.10;2.58;;;4.90;99.90;;;;;;5028697;28;20013;-83
2021/04/11 08:00:42;;;;;;;4.18;2.60;;;5.00;99.90;;;;;;5035056;28;20096;-83
2021/04/11 08:03:20;;;;;;;4.45;3.22;;;4.90;99.90;;;;;;5049253;28;20021;-83
2021/04/11 08:06:04;;;;;;;3.65;2.50;;;4.90;99.90;;;;;;5048890;28;20029;-83
2021/04/11 08:08:49;;;;;;;4.82;2.40;;;4.90;99.90;;;;;;5034777;28;20480;-83
2021/04/11 08:12:03;;;;;;;3.83;3.03;;;4.90;99.90;;;;;;5047014;28;20036;-83
2021/04/11 08:14:47;;;;;;;5.63;2.92;;;5.00;99.90;;;;;;5020439;28;20421;-84
2021/04/11 08:17:30;;;;;;;6.53;2.78;;;5.00;99.90;;;;;;5033255;28;20520;-84
2021/04/11 08:20:05;;;;;;;3.05;2.10;;;5.10;99.90;;;;;;5034383;28;20099;-84
2021/04/11 08:22:51;;;;;;;3.30;2.22;;;5.10;99.90;;;;;;5034480;28;20018;-84
2021/04/11 08:25:38;;;;;;;3.08;2.05;;;5.10;99.90;;;;;;5032704;28;20507;-84
2021/04/11 08:28:30;;;;;;;3.05;1.90;;;5.10;99.90;;;;;;5047534;28;20068;-84
2021/04/11 08:31:19;;;;;;;5.13;2.30;;;5.20;99.90;;;;;;5030664;28;20018;-84
2021/04/11 08:34:30;;;;;;;6.35;2.10;;;5.20;99.90;;;;;;5048253;28;20025;-84
2021/04/11 08:37:07;;;;;;;5.18;2.40;;;5.20;99.90;;;;;;5048305;28;20112;-82
2021/04/11 08:39:46;;;;;;;5.85;2.08;;;5.20;99.90;;;;;;5034181;28;20017;-84
2021/04/11 08:42:49;;;;;;;6.38;2.20;;;5.20;99.90;;;;;;5044628;28;20057;-85
2021/04/11 08:45:32;;;;;;;3.60;2.35;;;5.30;99.90;;;;;;5033471;28;20556;-84
2021/04/11 08:48:19;;;;;;;4.10;1.77;;;5.30;99.90;;;;;;5046041;28;20086;-84
2021/04/11 08:51:11;;;;;;;3.58;1.80;;;5.40;99.90;;;;;;5047303;28;20108;-84
2021/04/11 08:53:56;;;;;;;5.55;2.08;;;5.40;99.90;;;;;;5046700;28;20021;-84
2021/04/11 08:56:29;;;;;;;5.78;1.83;;;5.50;99.90;;;;;;5048463;28;20017;-84
2021/04/11 08:59:18;;;;;;;2.75;1.80;;;5.50;99.90;;;;;;5031472;28;20021;-84
2021/04/11 09:02:19;;;;;;;3.55;1.80;;;5.60;99.90;;;;;;5047251;28;20028;-84
2021/04/11 09:05:02;;;;;;;1.83;1.23;;;5.80;99.90;;;;;;5032604;28;20385;-84
2021/04/11 09:07:56;;;;;;;3.20;1.42;;;5.90;99.90;;;;;;5047789;28;20029;-84
2021/04/11 09:10:42;;;;;;;2.60;1.63;;;5.90;99.90;;;;;;5032038;28;20104;-84
2021/04/11 09:13:43;;;;;;;4.75;1.50;;;5.80;99.90;;;;;;5026962;28;20712;-84
2021/04/11 09:16:46;;;;;;;3.80;1.45;;;5.80;99.90;;;;;;5024468;28;20071;-86
2021/04/11 09:19:34;;;;;;;6.75;1.50;;;5.80;99.90;;;;;;5033246;28;20112;-84
2021/04/11 09:22:19;;;;;;;7.03;1.30;;;5.80;99.90;;;;;;5020707;28;20022;-85
2021/04/11 09:24:55;;;;;;;3.50;1.10;;;5.80;99.90;;;;;;5028551;28;20021;-85
2021/04/11 09:27:38;;;;;;;2.70;1.50;;;5.80;99.90;;;;;;5025799;28;20133;-84
2021/04/11 09:30:19;;;;;;;3.83;1.33;;;5.80;99.90;;;;;;5046652;28;20033;-83
2021/04/11 09:33:09;;;;;;;4.30;1.30;;;5.70;99.90;;;;;;5044299;28;20555;-84
2021/04/11 09:35:47;;;;;;;6.03;1.48;;;5.80;99.90;;;;;;5029442;28;20032;-84
2021/04/11 09:38:20;;;;;;;4.53;1.35;;;5.90;99.90;;;;;;5044100;28;20043;-84
2021/04/11 09:41:08;;;;;;;3.28;1.33;;;5.90;99.90;;;;;;5026977;28;20117;-84
2021/04/11 09:43:47;;;;;;;3.75;1.10;;;6.00;99.90;;;;;;5018433;28;20493;-84
2021/04/11 09:46:36;;;;;;;6.22;1.95;;;6.30;99.90;;;;;;5015787;28;20022;-84
2021/04/11 09:49:26;;;;;;;3.25;1.58;;;6.60;99.90;;;;;;5021466;28;20021;-84
2021/04/11 09:52:18;;;;;;;4.65;1.42;;;6.60;99.90;;;;;;5028680;28;20063;-84
2021/04/11 09:54:54;;;;;;;3.05;1.23;;;6.60;99.90;;;;;;5038931;28;20477;-85
2021/04/11 09:57:34;;;;;;;2.75;1.20;;;6.50;99.90;;;;;;5018925;28;20052;-86
2021/04/11 10:00:12;;;;;;;5.15;1.38;;;6.50;99.90;;;;;;5029917;28;20014;-88
2021/04/11 10:03:08;;;;;;;6.45;1.70;;;6.30;99.90;;;;;;5032939;28;20033;-87
2021/04/11 10:05:52;;;;;;;4.43;1.58;;;6.20;99.90;;;;;;5022808;28;20120;-88
2021/04/11 10:09:00;;;;;;;5.47;1.50;;;6.00;99.90;;;;;;5043136;28;20017;-88
2021/04/11 10:11:49;;;;;;;2.10;1.10;;;6.00;99.90;;;;;;4996184;28;20033;-86
2021/04/11 10:14:24;;;;;;;2.47;1.23;;;5.90;99.90;;;;;;5027758;28;20502;-87
2021/04/11 10:17:02;;;;;;;2.03;0.85;;;6.00;99.90;;;;;;5027853;28;20010;-86
2021/04/11 10:19:49;;;;;;;2.25;1.05;;;6.10;99.90;;;;;;5032295;28;20099;-86
2021/04/11 10:22:36;;;;;;;4.85;0.73;;;6.10;99.90;;;;;;5047015;28;20075;-86
2021/04/11 10:25:28;;;;;;;4.28;0.90;;;6.10;99.90;;;;;;5044876;28;20386;-85
2021/04/11 10:28:18;;;;;;;4.35;1.00;;;6.10;99.90;;;;;;5031758;28;20025;-85
2021/04/11 10:30:53;;;;;;;3.42;0.88;;;6.10;99.90;;;;;;5027966;28;20026;-83
2021/04/11 10:33:45;;;;;;;4.25;0.90;;;6.00;99.90;;;;;;5031802;28;20029;-85
2021/04/11 10:36:29;;;;;;;3.90;0.93;;;6.00;99.90;;;;;;5044438;28;20021;-85
2021/04/11 10:39:08;;;;;;;4.85;1.10;;;5.90;99.90;;;;;;5040863;28;20037;-84
2021/04/11 10:41:55;;;;;;;1.60;1.00;;;5.90;99.90;;;;;;5044735;28;20473;-84
2021/04/11 10:44:37;;;;;;;3.00;1.15;;;5.90;99.90;;;;;;5031578;28;20432;-83
2021/04/11 10:47:44;;;;;;;3.88;1.38;;;5.90;99.90;;;;;;5031717;28;20025;-84
2021/04/11 10:50:27;;;;;;;4.07;1.10;;;5.90;99.90;;;;;;5044386;28;20036;-83
2021/04/11 10:53:13;;;;;;;3.03;1.40;;;6.00;99.90;;;;;;5033263;28;20042;-85
2021/04/11 10:56:06;;;;;;;3.75;1.00;;;6.00;99.90;;;;;;5046271;28;20501;-86
2021/04/11 10:59:02;;;;;;;2.55;1.00;;;6.10;99.90;;;;;;5030865;28;20064;-86
2021/04/11 11:01:52;;;;;;;2.80;1.02;;;6.20;99.90;;;;;;5026217;28;20024;-84
2021/04/11 11:04:44;;;;;;;4.70;0.98;;;6.30;99.90;;;;;;5028620;28;20025;-84
2021/04/11 11:07:28;;;;;;;4.00;1.73;;;6.50;99.90;;;;;;5045158;28;20053;-85
2021/04/11 11:09:53;;;;;;;3.30;1.10;;;6.90;99.90;;;;;;5030728;28;20032;-85
2021/04/11 11:12:55;;;;;;;2.25;1.10;;;7.30;99.90;;;;;;5031052;28;20389;-85
2021/04/11 11:15:42;;;;;;;2.70;1.13;;;8.00;99.90;;;;;;4973252;28;20462;-84
2021/04/11 11:18:38;;;;;;;4.97;1.05;;;8.50;99.90;;;;;;5016724;28;20053;-85
2021/04/11 11:21:29;;;;;;;2.30;0.98;;;8.90;99.90;;;;;;5030920;28;20473;-83
2021/04/11 11:24:13;;;;;;;2.42;1.38;;;8.60;99.90;;;;;;5045169;28;20026;-83
2021/04/11 11:27:22;;;;;;;3.45;1.25;;;8.40;99.90;;;;;;5030495;28;20033;-83
2021/04/11 11:30:13;;;;;;;2.47;1.00;;;8.30;99.90;;;;;;5043230;28;20138;-84
2021/04/11 11:33:09;;;;;;;3.53;1.00;;;8.10;99.90;;;;;;5031083;28;20516;-83
2021/04/11 11:35:54;;;;;;;6.50;1.55;;;7.80;99.90;;;;;;5034150;28;20025;-84
2021/04/11 11:38:31;;;;;;;2.78;1.20;;;7.60;99.90;;;;;;5032413;28;20025;-86
2021/04/11 11:41:35;;;;;;;3.42;0.70;;;7.40;99.90;;;;;;5044210;28;20024;-85
2021/04/11 11:44:12;;;;;;;2.03;0.75;;;7.50;99.90;;;;;;5025391;28;20034;-86
2021/04/11 11:46:49;;;;;;;3.80;1.05;;;7.50;99.90;;;;;;5029888;28;20036;-86
2021/04/11 11:49:18;;;;;;;1.92;0.80;;;7.70;99.90;;;;;;5030296;28;20021;-86
2021/04/11 11:52:33;;;;;;;6.88;0.90;;;8.00;99.90;;;;;;5028473;28;20018;-85
2021/04/11 11:55:08;;;;;;;3.45;0.68;;;8.10;99.90;;;;;;5002876;28;20088;-86
2021/04/11 11:58:18;;;;;;;5.60;1.08;;;8.00;99.90;;;;;;5021601;28;20053;-85
2021/04/11 12:00:56;;;;;;;;;;;7.90;99.90;;;;;;5014762;28;20112;-85
2021/04/11 12:03:32;;;;;;;5.07;1.02;;;7.70;99.90;;;;;;5035419;28;20280;-85
2021/04/11 12:06:17;;;;;;;2.17;0.52;;;7.50;99.90;;;;;;5034740;28;20017;-85
2021/04/11 12:09:12;;;;;;;4.15;0.77;;;7.60;99.90;;;;;;5034183;28;20022;-86
2021/04/11 12:11:59;;;;;;;3.10;0.70;;;7.70;99.90;;;;;;5034254;28;20484;-85
2021/04/11 12:14:29;;;;;;;2.90;0.70;;;8.00;99.90;;;;;;5035326;28;20362;-85
2021/04/11 12:17:17;;;;;;;1.55;0.70;;;8.90;99.90;;;;;;5034064;28;20080;-85
2021/04/11 12:19:57;;;;;;;2.20;0.60;;;9.50;99.90;;;;;;5033706;28;20037;-84
2021/04/11 12:22:43;;;;;;;2.88;0.65;;;9.60;99.90;;;;;;5034105;28;20029;-85
2021/04/11 12:25:11;;;;;;;1.80;0.70;;;9.50;99.90;;;;;;5033663;28;20027;-86
2021/04/11 12:27:39;;;;;;;2.38;0.60;;;9.40;99.90;;;;;;5033723;28;20464;-86
2021/04/11 12:30:17;;;;;;;2.28;0.60;;;9.30;99.90;;;;;;5033783;28;20024;-85
2021/04/11 12:33:04;;;;;;;1.90;0.50;;;9.20;99.90;;;;;;5033549;28;20057;-85
2021/04/11 12:35:33;;;;;;;2.55;0.73;;;9.10;99.90;;;;;;5034899;28;20115;-86
2021/04/11 12:38:17;;;;;;;3.08;0.90;;;9.10;99.90;;;;;;5033352;28;20025;-85
2021/04/11 12:41:13;;;;;;;2.70;0.60;;;9.00;99.90;;;;;;5032963;28;20439;-85
2021/04/11 12:44:01;;;;;;;1.83;0.65;;;9.20;99.90;;;;;;5015624;28;20048;-85
2021/04/11 12:46:42;;;;;;;2.03;0.38;;;9.30;99.90;;;;;;5031966;28;20111;-85
2021/04/11 12:49:17;;;;;;;1.08;0.40;;;9.40;99.90;;;;;;5033079;28;20039;-85
2021/04/11 12:52:02;;;;;;;1.85;0.60;;;9.50;99.90;;;;;;5034819;28;20060;-85
2021/04/11 12:54:45;;;;;;;2.67;0.55;;;9.40;99.90;;;;;;5033427;28;20075;-85
2021/04/11 12:57:20;;;;;;;1.73;0.63;;;9.20;99.90;;;;;;5033486;28;20029;-85
2021/04/11 12:59:55;;;;;;;1.75;0.40;;;9.40;99.90;;;;;;5033406;28;20022;-85
2021/04/11 13:02:30;;;;;;;1.88;0.40;;;10.00;99.90;;;;;;5033644;28;20022;-85
2021/04/11 13:05:09;;;;;;;1.42;0.52;;;11.10;99.90;;;;;;5034491;28;20071;-85
2021/04/11 13:08:02;;;;;;;0.70;0.40;;;12.60;99.90;;;;;;5034758;28;20438;-85
2021/04/11 13:10:34;;;;;;;1.55;0.43;;;13.50;98.30;;;;;;5033477;28;20428;-85
2021/04/11 13:13:16;;;;;;;1.40;0.40;;;13.90;96.00;;;;;;5033219;28;20021;-85
2021/04/11 13:15:51;;;;;;;2.60;0.40;;;14.70;94.90;;;;;;5021694;28;20045;-85
2021/04/11 13:18:37;;;;;;;2.15;0.40;;;15.40;90.40;;;;;;5008476;28;20037;-85
2021/04/11 13:21:19;;;;;;;1.17;0.40;;;14.60;84.70;;;;;;4999598;28;20034;-85
2021/04/11 13:23:55;;;;;;;3.03;0.43;;;13.60;86.80;;;;;;5014641;28;20022;-85
2021/04/11 13:26:44;;;;;;;1.85;0.43;;;12.70;91.50;;;;;;5029914;28;20038;-85
2021/04/11 13:29:21;;;;;;;2.20;0.50;;;11.90;94.30;;;;;;5029833;28;20034;-85
2021/04/11 13:32:08;;;;;;;2.13;0.60;;;11.30;96.40;;;;;;5029930;28;20798;-85
2021/04/11 13:34:43;;;;;;;2.72;0.60;;;11.00;98.50;;;;;;5029477;28;20080;-85
2021/04/11 13:37:12;;;;;;;1.50;0.50;;;10.80;98.70;;;;;;5014790;28;20050;-85
2021/04/11 13:39:41;;;;;;;2.50;0.50;;;10.80;99.90;;;;;;5029648;28;20021;-85
2021/04/11 13:42:52;;;;;;;0.93;0.50;;;10.70;99.50;;;;;;5029466;28;20501;-85
2021/04/11 13:45:29;;;;;;;2.67;0.60;;;10.80;98.80;;;;;;5029425;28;20037;-85
2021/04/11 13:48:13;;;;;;;2.03;0.40;;;11.20;99.10;;;;;;5014309;28;20054;-85
2021/04/11 13:51:20;;;;;;;1.10;0.40;;;11.50;99.10;;;;;;5029376;28;20481;-85
2021/04/11 13:53:51;;;;;;;3.40;0.50;;;11.40;95.30;;;;;;5029292;28;20030;-85
2021/04/11 13:56:32;;;;;;;1.20;0.40;;;11.00;92.10;;;;;;5013728;28;20030;-85
2021/04/11 13:59:21;;;;;;;2.35;0.50;;;10.90;94.50;;;;;;5029212;28;20040;-85